createdAt,value
2018-01-24T00:00:38.214Z,1013.71
2018-01-24T00:01:47.899Z,1013.81
2018-01-24T00:02:57.584Z,1013.76
2018-01-24T00:04:07.786Z,1013.69
2018-01-24T00:05:17.230Z,1013.71
2018-01-24T00:06:27.182Z,1013.71
2018-01-24T00:07:36.616Z,1013.75
2018-01-24T00:08:46.574Z,1013.65
2018-01-24T00:09:56.515Z,1013.66
2018-01-24T00:11:06.453Z,1013.63
2018-01-24T00:12:16.150Z,1013.66
2018-01-24T00:13:25.837Z,1013.61
2018-01-24T00:14:35.782Z,1013.65
2018-01-24T00:15:45.800Z,1013.53
2018-01-24T00:16:55.731Z,1013.58
2018-01-24T00:18:05.718Z,1013.54
2018-01-24T00:19:15.656Z,1013.51
2018-01-24T00:20:25.599Z,1013.5
2018-01-24T00:21:35.539Z,1013.44
2018-01-24T00:22:45.485Z,1013.48
2018-01-24T00:23:54.914Z,1013.62
2018-01-24T00:25:04.618Z,1013.55
2018-01-24T00:26:14.568Z,1013.5
2018-01-24T00:27:24.508Z,1013.6
2018-01-24T00:28:34.460Z,1013.37
2018-01-24T00:29:44.166Z,1013.56
2018-01-24T00:30:53.911Z,1013.47
2018-01-24T00:32:03.854Z,1013.5
2018-01-24T00:33:13.552Z,1013.51
2018-01-24T00:34:23.522Z,1013.58
2018-01-24T00:35:33.455Z,1013.66
2018-01-24T00:36:42.638Z,1013.56
2018-01-24T00:37:52.639Z,1013.59
2018-01-24T00:39:02.590Z,1013.63
2018-01-24T00:40:12.289Z,1013.63
2018-01-24T00:41:21.970Z,1013.58
2018-01-24T00:42:31.912Z,1013.6
2018-01-24T00:43:41.848Z,1013.54
2018-01-24T00:44:51.531Z,1013.56
2018-01-24T00:46:01.469Z,1013.53
2018-01-24T00:47:11.409Z,1013.5
2018-01-24T00:48:21.358Z,1013.42
2018-01-24T00:49:31.067Z,1013.48
2018-01-24T00:50:41.071Z,1013.42
2018-01-24T00:51:51.013Z,1013.39
2018-01-24T00:53:00.953Z,1013.35
2018-01-24T00:54:10.909Z,1013.4
2018-01-24T00:55:20.603Z,1013.36
2018-01-24T00:56:30.552Z,1013.38
2018-01-24T00:57:40.507Z,1013.3
2018-01-24T00:58:50.196Z,1013.37
2018-01-24T01:00:00.190Z,1013.37
2018-01-24T01:01:10.125Z,1013.41
2018-01-24T01:02:20.077Z,1013.36
2018-01-24T01:03:30.025Z,1013.36
2018-01-24T01:04:39.969Z,1013.22
2018-01-24T01:05:49.658Z,1013.32
2018-01-24T01:06:59.357Z,1013.3
2018-01-24T01:08:09.300Z,1013.37
2018-01-24T01:09:18.734Z,1013.33
2018-01-24T01:10:28.667Z,1013.28
2018-01-24T01:11:38.609Z,1013.3
2018-01-24T01:12:48.561Z,1013.3
2018-01-24T01:13:58.256Z,1013.37
2018-01-24T01:15:08.207Z,1013.31
2018-01-24T01:16:17.642Z,1013.37
2018-01-24T01:17:27.326Z,1013.36
2018-01-24T01:18:37.261Z,1013.3
2018-01-24T01:19:47.205Z,1013.3
2018-01-24T01:20:56.879Z,1013.32
2018-01-24T01:22:06.822Z,1013.3
2018-01-24T01:23:16.780Z,1013.28
2018-01-24T01:24:26.740Z,1013.33
2018-01-24T01:25:36.684Z,1013.36
2018-01-24T01:26:46.625Z,1013.42
2018-01-24T01:27:56.324Z,1013.45
2018-01-24T01:29:06.004Z,1013.28
2018-01-24T01:30:15.690Z,1013.3
2018-01-24T01:31:25.637Z,1013.31
2018-01-24T01:32:35.591Z,1013.25
2018-01-24T01:33:45.528Z,1013.23
2018-01-24T01:34:55.468Z,1013.28
2018-01-24T01:36:05.425Z,1013.29
2018-01-24T01:37:15.362Z,1013.17
2018-01-24T01:38:25.316Z,1013.18
2018-01-24T01:39:35.268Z,1013.18
2018-01-24T01:40:45.007Z,1013.2
2018-01-24T01:41:54.979Z,1013.22
2018-01-24T01:43:04.666Z,1013.29
2018-01-24T01:44:14.101Z,1013.26
2018-01-24T01:45:23.786Z,1013.22
2018-01-24T01:46:33.729Z,1013.19
2018-01-24T01:47:43.716Z,1013.16
2018-01-24T01:48:53.764Z,1013.06
2018-01-24T01:50:03.713Z,1013.05
2018-01-24T01:51:13.659Z,1013.02
2018-01-24T01:52:23.608Z,1012.96
2018-01-24T01:53:33.550Z,1013.08
2018-01-24T01:54:43.499Z,1013.03
2018-01-24T01:55:53.483Z,1012.94
2018-01-24T01:57:03.426Z,1012.98
2018-01-24T01:58:13.367Z,1013.06
2018-01-24T01:59:23.296Z,1013.03
2018-01-24T02:00:32.981Z,1013.03
2018-01-24T02:01:42.674Z,1013.04
2018-01-24T02:02:52.629Z,1013.05
2018-01-24T02:04:02.588Z,1012.94
2018-01-24T02:05:12.522Z,1013.01
2018-01-24T02:06:22.222Z,1013.13
2018-01-24T02:07:32.176Z,1013.09
2018-01-24T02:08:42.112Z,1013.1
2018-01-24T02:09:52.069Z,1013.04
2018-01-24T02:11:02.021Z,1013.08
2018-01-24T02:12:11.975Z,1013.17
2018-01-24T02:13:21.922Z,1013.13
2018-01-24T02:14:31.606Z,1013.06
2018-01-24T02:15:41.546Z,1013.01
2018-01-24T02:16:51.492Z,1013.08
2018-01-24T02:18:01.447Z,1013.06
2018-01-24T02:19:11.137Z,1013.05
2018-01-24T02:20:20.823Z,1013.07
2018-01-24T02:21:30.754Z,1012.95
2018-01-24T02:22:40.188Z,1012.91
2018-01-24T02:23:50.137Z,1012.99
2018-01-24T02:24:59.832Z,1012.98
2018-01-24T02:26:09.795Z,1012.95
2018-01-24T02:27:19.482Z,1013.05
2018-01-24T02:28:29.426Z,1013
2018-01-24T02:29:39.374Z,1013
2018-01-24T02:30:49.310Z,1013.01
2018-01-24T02:31:59.266Z,1012.97
2018-01-24T02:33:08.948Z,1012.89
2018-01-24T02:34:18.907Z,1012.83
2018-01-24T02:35:28.873Z,1012.81
2018-01-24T02:36:38.564Z,1012.85
2018-01-24T02:37:48.014Z,1012.77
2018-01-24T02:38:57.977Z,1012.77
2018-01-24T02:40:07.935Z,1012.71
2018-01-24T02:41:17.875Z,1012.81
2018-01-24T02:42:27.620Z,1012.75
2018-01-24T02:43:37.317Z,1012.71
2018-01-24T02:44:47.263Z,1012.71
2018-01-24T02:45:57.228Z,1012.74
2018-01-24T02:47:07.197Z,1012.65
2018-01-24T02:48:16.898Z,1012.62
2018-01-24T02:49:26.884Z,1012.66
2018-01-24T02:50:36.825Z,1012.68
2018-01-24T02:51:46.517Z,1012.65
2018-01-24T02:52:56.459Z,1012.56
2018-01-24T02:54:06.408Z,1012.61
2018-01-24T02:55:16.116Z,1012.63
2018-01-24T02:56:26.086Z,1012.59
2018-01-24T02:57:35.771Z,1012.56
2018-01-24T02:58:45.463Z,1012.64
2018-01-24T02:59:54.652Z,1012.6
2018-01-24T03:01:04.650Z,1012.63
2018-01-24T03:02:14.336Z,1012.67
2018-01-24T03:03:24.021Z,1012.65
2018-01-24T03:04:33.968Z,1012.73
2018-01-24T03:05:43.655Z,1012.69
2018-01-24T03:06:53.663Z,1012.73
2018-01-24T03:08:03.342Z,1012.69
2018-01-24T03:09:13.291Z,1012.65
2018-01-24T03:10:23.493Z,1012.65
2018-01-24T03:11:33.434Z,1012.53
2018-01-24T03:12:43.123Z,1012.53
2018-01-24T03:13:52.556Z,1012.49
2018-01-24T03:15:02.504Z,1012.49
2018-01-24T03:16:12.191Z,1012.48
2018-01-24T03:17:21.881Z,1012.42
2018-01-24T03:18:31.827Z,1012.6
2018-01-24T03:19:41.764Z,1012.51
2018-01-24T03:20:51.449Z,1012.47
2018-01-24T03:22:01.124Z,1012.57
2018-01-24T03:23:11.067Z,1012.52
2018-01-24T03:24:20.813Z,1012.6
2018-01-24T03:25:30.502Z,1012.57
2018-01-24T03:26:40.447Z,1012.56
2018-01-24T03:27:50.131Z,1012.52
2018-01-24T03:28:59.823Z,1012.57
2018-01-24T03:30:09.525Z,1012.61
2018-01-24T03:31:19.485Z,1012.52
2018-01-24T03:32:29.439Z,1012.49
2018-01-24T03:33:39.390Z,1012.57
2018-01-24T03:34:49.331Z,1012.46
2018-01-24T03:35:59.276Z,1012.53
2018-01-24T03:37:09.221Z,1012.59
2018-01-24T03:38:19.163Z,1012.61
2018-01-24T03:39:28.598Z,1012.6
2018-01-24T03:40:38.539Z,1012.56
2018-01-24T03:41:48.486Z,1012.58
2018-01-24T03:42:58.443Z,1012.56
2018-01-24T03:44:08.386Z,1012.42
2018-01-24T03:45:18.111Z,1012.5
2018-01-24T03:46:28.059Z,1012.54
2018-01-24T03:47:37.989Z,1012.55
2018-01-24T03:48:47.680Z,1012.57
2018-01-24T03:49:57.630Z,1012.52
2018-01-24T03:51:07.328Z,1012.62
2018-01-24T03:52:17.281Z,1012.53
2018-01-24T03:53:27.222Z,1012.5
2018-01-24T03:54:37.166Z,1012.51
2018-01-24T03:55:47.096Z,1012.29
2018-01-24T03:56:56.781Z,1012.34
2018-01-24T03:58:06.722Z,1012.45
2018-01-24T03:59:16.709Z,1012.31
2018-01-24T04:00:26.146Z,1012.33
2018-01-24T04:01:36.091Z,1012.24
2018-01-24T04:02:46.036Z,1012.24
2018-01-24T04:03:56.037Z,1012.24
2018-01-24T04:05:05.726Z,1012.18
2018-01-24T04:06:15.756Z,1012.2
2018-01-24T04:07:25.775Z,1012.18
2018-01-24T04:08:35.205Z,1012.26
2018-01-24T04:09:44.632Z,1012.13
2018-01-24T04:10:54.564Z,1012.09
2018-01-24T04:12:04.241Z,1012.2
2018-01-24T04:13:14.197Z,1012.26
2018-01-24T04:14:23.873Z,1012.29
2018-01-24T04:15:33.827Z,1012.2
2018-01-24T04:16:43.769Z,1012.22
2018-01-24T04:17:53.709Z,1012.2
2018-01-24T04:19:03.394Z,1012.16
2018-01-24T04:20:13.340Z,1012.06
2018-01-24T04:21:23.279Z,1011.96
2018-01-24T04:22:33.219Z,1012.14
2018-01-24T04:23:42.903Z,1012.08
2018-01-24T04:24:52.878Z,1012.16
2018-01-24T04:26:02.834Z,1012.15
2018-01-24T04:27:12.778Z,1012.16
2018-01-24T04:28:22.731Z,1012.15
2018-01-24T04:29:32.409Z,1012.16
2018-01-24T04:30:42.090Z,1012.08
2018-01-24T04:31:51.847Z,1012.09
2018-01-24T04:33:01.789Z,1012.06
2018-01-24T04:34:11.734Z,1012.1
2018-01-24T04:35:21.424Z,1012.12
2018-01-24T04:36:31.129Z,1012.02
2018-01-24T04:37:41.077Z,1012.1
2018-01-24T04:38:51.080Z,1011.97
2018-01-24T04:40:00.764Z,1011.99
2018-01-24T04:41:10.722Z,1012
2018-01-24T04:42:20.412Z,1012.02
2018-01-24T04:43:30.355Z,1012.09
2018-01-24T04:44:40.295Z,1012.14
2018-01-24T04:45:50.494Z,1012.13
2018-01-24T04:47:00.444Z,1012.02
2018-01-24T04:48:10.392Z,1012.1
2018-01-24T04:49:20.347Z,1012.14
2018-01-24T04:50:30.048Z,1012.2
2018-01-24T04:51:40.208Z,1012.13
2018-01-24T04:52:50.182Z,1012.17
2018-01-24T04:53:59.878Z,1012.09
2018-01-24T04:55:09.828Z,1012.09
2018-01-24T04:56:19.775Z,1012.04
2018-01-24T04:57:29.482Z,1012.05
2018-01-24T04:58:39.184Z,1011.93
2018-01-24T04:59:49.120Z,1012.1
2018-01-24T05:00:59.058Z,1012.09
2018-01-24T05:02:09.004Z,1012.01
2018-01-24T05:03:18.961Z,1011.97
2018-01-24T05:04:28.913Z,1012.1
2018-01-24T05:05:38.857Z,1011.99
2018-01-24T05:06:48.791Z,1012.06
2018-01-24T05:07:58.726Z,1012.09
2018-01-24T05:09:08.410Z,1012.17
2018-01-24T05:10:18.354Z,1012.14
2018-01-24T05:11:28.301Z,1012.24
2018-01-24T05:12:38.242Z,1012.11
2018-01-24T05:13:48.200Z,1012.23
2018-01-24T05:14:57.393Z,1012.23
2018-01-24T05:16:07.354Z,1012.33
2018-01-24T05:17:17.293Z,1012.23
2018-01-24T05:18:26.979Z,1012.25
2018-01-24T05:19:36.914Z,1012.25
2018-01-24T05:20:46.606Z,1012.29
2018-01-24T05:21:56.588Z,1012.32
2018-01-24T05:23:06.281Z,1012.37
2018-01-24T05:24:16.223Z,1012.31
2018-01-24T05:25:25.946Z,1012.29
2018-01-24T05:26:35.898Z,1012.28
2018-01-24T05:27:45.880Z,1012.25
2018-01-24T05:28:55.820Z,1012.31
2018-01-24T05:30:05.819Z,1012.32
2018-01-24T05:31:15.456Z,1012.42
2018-01-24T05:32:25.199Z,1012.42
2018-01-24T05:33:34.885Z,1012.42
2018-01-24T05:34:44.571Z,1012.43
2018-01-24T05:35:54.508Z,1012.4
2018-01-24T05:37:04.454Z,1012.44
2018-01-24T05:38:13.906Z,1012.34
2018-01-24T05:39:23.602Z,1012.47
2018-01-24T05:40:33.553Z,1012.51
2018-01-24T05:41:43.497Z,1012.5
2018-01-24T05:42:53.190Z,1012.53
2018-01-24T05:44:03.129Z,1012.54
2018-01-24T05:45:13.063Z,1012.59
2018-01-24T05:46:23.006Z,1012.61
2018-01-24T05:47:32.692Z,1012.62
2018-01-24T05:48:42.398Z,1012.59
2018-01-24T05:49:52.337Z,1012.66
2018-01-24T05:51:02.291Z,1012.53
2018-01-24T05:52:11.970Z,1012.62
2018-01-24T05:53:21.408Z,1012.6
2018-01-24T05:54:31.119Z,1012.66
2018-01-24T05:55:40.804Z,1012.56
2018-01-24T05:56:50.801Z,1012.55
2018-01-24T05:58:00.479Z,1012.58
2018-01-24T05:59:10.419Z,1012.65
2018-01-24T06:00:20.114Z,1012.6
2018-01-24T06:01:30.051Z,1012.58
2018-01-24T06:02:39.995Z,1012.64
2018-01-24T06:03:49.938Z,1012.62
2018-01-24T06:04:59.892Z,1012.7
2018-01-24T06:06:09.833Z,1012.61
2018-01-24T06:07:19.773Z,1012.67
2018-01-24T06:08:29.478Z,1012.55
2018-01-24T06:09:39.418Z,1012.53
2018-01-24T06:10:49.364Z,1012.62
2018-01-24T06:11:59.056Z,1012.62
2018-01-24T06:13:08.991Z,1012.66
2018-01-24T06:14:18.930Z,1012.65
2018-01-24T06:15:28.896Z,1012.66
2018-01-24T06:16:38.875Z,1012.73
2018-01-24T06:17:48.879Z,1012.82
2018-01-24T06:18:58.814Z,1012.75
2018-01-24T06:20:08.772Z,1012.77
2018-01-24T06:21:18.750Z,1012.71
2018-01-24T06:22:28.690Z,1012.81
2018-01-24T06:23:38.643Z,1012.72
2018-01-24T06:24:48.588Z,1012.69
2018-01-24T06:25:58.529Z,1012.74
2018-01-24T06:27:08.535Z,1012.79
2018-01-24T06:28:18.217Z,1012.84
2018-01-24T06:29:28.170Z,1012.82
2018-01-24T06:30:38.129Z,1012.92
2018-01-24T06:31:47.841Z,1012.89
2018-01-24T06:32:57.794Z,1012.87
2018-01-24T06:34:07.492Z,1012.94
2018-01-24T06:35:16.929Z,1012.84
2018-01-24T06:36:26.896Z,1012.81
2018-01-24T06:37:36.580Z,1012.9
2018-01-24T06:38:46.569Z,1012.89
2018-01-24T06:39:56.506Z,1012.91
2018-01-24T06:41:06.462Z,1012.92
2018-01-24T06:42:16.411Z,1012.96
2018-01-24T06:43:26.359Z,1012.9
2018-01-24T06:44:36.324Z,1012.91
2018-01-24T06:45:46.261Z,1012.87
2018-01-24T06:46:56.201Z,1012.88
2018-01-24T06:48:05.641Z,1012.86
2018-01-24T06:49:15.864Z,1012.88
2018-01-24T06:50:25.680Z,1012.92
2018-01-24T06:51:35.653Z,1012.81
2018-01-24T06:52:45.628Z,1012.84
2018-01-24T06:53:55.373Z,1012.85
2018-01-24T06:55:05.088Z,1012.84
2018-01-24T06:56:15.048Z,1012.79
2018-01-24T06:57:25.014Z,1012.83
2018-01-24T06:58:34.976Z,1012.81
2018-01-24T06:59:44.919Z,1012.83
2018-01-24T07:00:54.861Z,1012.86
2018-01-24T07:02:04.830Z,1012.88
2018-01-24T07:03:14.520Z,1012.84
2018-01-24T07:04:24.211Z,1012.83
2018-01-24T07:05:33.927Z,1012.86
2018-01-24T07:06:43.885Z,1012.9
2018-01-24T07:07:53.851Z,1012.91
2018-01-24T07:09:04.124Z,1012.89
2018-01-24T07:10:13.852Z,1012.93
2018-01-24T07:11:23.822Z,1012.95
2018-01-24T07:12:33.522Z,1012.97
2018-01-24T07:13:43.510Z,1012.97
2018-01-24T07:14:53.214Z,1012.94
2018-01-24T07:16:03.188Z,1013.02
2018-01-24T07:17:13.163Z,1013.01
2018-01-24T07:18:23.114Z,1013.05
2018-01-24T07:19:33.077Z,1013.05
2018-01-24T07:20:43.061Z,1013.02
2018-01-24T07:21:52.776Z,1013.02
2018-01-24T07:23:02.233Z,1013.02
2018-01-24T07:24:12.207Z,1013.02
2018-01-24T07:25:22.185Z,1013.02
2018-01-24T07:26:31.642Z,1013
2018-01-24T07:27:41.601Z,1013
2018-01-24T07:28:51.560Z,1013.03
2018-01-24T07:30:01.769Z,1012.95
2018-01-24T07:31:11.733Z,1013.03
2018-01-24T07:32:21.683Z,1012.96
2018-01-24T07:33:31.126Z,1013.03
2018-01-24T07:34:40.840Z,1012.97
2018-01-24T07:35:50.821Z,1013
2018-01-24T07:37:00.520Z,1013.02
2018-01-24T07:38:10.215Z,1013.08
2018-01-24T07:39:20.170Z,1012.94
2018-01-24T07:40:29.876Z,1012.92
2018-01-24T07:41:39.819Z,1012.92
2018-01-24T07:42:49.526Z,1012.9
2018-01-24T07:43:59.479Z,1012.9
2018-01-24T07:45:09.507Z,1012.91
2018-01-24T07:46:19.453Z,1012.98
2018-01-24T07:47:29.154Z,1012.96
2018-01-24T07:48:39.129Z,1012.97
2018-01-24T07:49:48.830Z,1012.96
2018-01-24T07:50:58.814Z,1012.98
2018-01-24T07:52:08.769Z,1012.97
2018-01-24T07:53:18.723Z,1012.96
2018-01-24T07:54:28.472Z,1012.97
2018-01-24T07:55:38.432Z,1012.96
2018-01-24T07:56:48.142Z,1012.94
2018-01-24T07:57:58.107Z,1013.05
2018-01-24T07:59:07.543Z,1013.02
2018-01-24T08:00:17.500Z,1013.04
2018-01-24T08:01:27.193Z,1013.04
2018-01-24T08:02:37.127Z,1013.1
2018-01-24T08:03:47.092Z,1013.07
2018-01-24T08:04:56.789Z,1013.02
2018-01-24T08:06:06.742Z,1013.13
2018-01-24T08:07:16.710Z,1013.11
2018-01-24T08:08:26.430Z,1013.07
2018-01-24T08:09:36.121Z,1013.1
2018-01-24T08:10:45.817Z,1013.12
2018-01-24T08:11:55.534Z,1013.13
2018-01-24T08:13:05.220Z,1013.12
2018-01-24T08:14:15.172Z,1013.18
2018-01-24T08:15:24.866Z,1013.2
2018-01-24T08:16:35.113Z,1013.23
2018-01-24T08:17:45.325Z,1013.12
2018-01-24T08:18:55.034Z,1013.26
2018-01-24T08:20:05.008Z,1013.3
2018-01-24T08:21:14.958Z,1013.3
2018-01-24T08:22:24.917Z,1013.3
2018-01-24T08:23:34.643Z,1013.32
2018-01-24T08:24:44.588Z,1013.35
2018-01-24T08:25:54.541Z,1013.28
2018-01-24T08:27:04.499Z,1013.26
2018-01-24T08:28:14.455Z,1013.31
2018-01-24T08:29:24.454Z,1013.23
2018-01-24T08:30:34.428Z,1013.13
2018-01-24T08:31:44.450Z,1013.26
2018-01-24T08:32:54.405Z,1013.17
2018-01-24T08:34:03.847Z,1013.27
2018-01-24T08:35:13.813Z,1013.2
2018-01-24T08:36:23.775Z,1013.15
2018-01-24T08:37:33.752Z,1013.19
2018-01-24T08:38:43.457Z,1013.15
2018-01-24T08:39:53.717Z,1013.09
2018-01-24T08:41:03.673Z,1013.1
2018-01-24T08:42:13.665Z,1013.08
2018-01-24T08:43:23.676Z,1013.17
2018-01-24T08:44:40.004Z,1013.1
2018-01-24T08:45:49.970Z,1013.02
2018-01-24T08:46:59.922Z,1013.04
2018-01-24T08:48:09.621Z,1013.05
2018-01-24T08:49:19.591Z,1013.04
2018-01-24T08:50:29.277Z,1013.07
2018-01-24T08:51:39.201Z,1013.08
2018-01-24T08:52:48.915Z,1013.07
2018-01-24T08:53:58.605Z,1013.09
2018-01-24T08:55:08.566Z,1013.16
2018-01-24T08:56:18.516Z,1013.17
2018-01-24T08:57:28.474Z,1013.16
2018-01-24T08:58:38.435Z,1013.21
2018-01-24T08:59:48.390Z,1013.31
2018-01-24T09:00:58.088Z,1013.21
2018-01-24T09:02:08.035Z,1013.3
2018-01-24T09:03:17.495Z,1013.3
2018-01-24T09:04:27.453Z,1013.26
2018-01-24T09:05:37.420Z,1013.27
2018-01-24T09:06:47.362Z,1013.3
2018-01-24T09:07:57.073Z,1013.31
2018-01-24T09:09:06.769Z,1013.3
2018-01-24T09:10:16.493Z,1013.34
2018-01-24T09:11:26.464Z,1013.27
2018-01-24T09:12:36.431Z,1013.31
2018-01-24T09:13:46.407Z,1013.26
2018-01-24T09:14:56.373Z,1013.29
2018-01-24T09:16:06.354Z,1013.27
2018-01-24T09:17:16.333Z,1013.29
2018-01-24T09:18:26.088Z,1013.24
2018-01-24T09:19:36.092Z,1013.36
2018-01-24T09:20:46.051Z,1013.28
2018-01-24T09:21:55.768Z,1013.31
2018-01-24T09:23:05.476Z,1013.26
2018-01-24T09:24:15.458Z,1013.37
2018-01-24T09:25:25.164Z,1013.41
2018-01-24T09:26:35.166Z,1013.39
2018-01-24T09:27:45.129Z,1013.41
2018-01-24T09:28:55.102Z,1013.31
2018-01-24T09:30:05.116Z,1013.24
2018-01-24T09:31:14.542Z,1013.21
2018-01-24T09:32:24.732Z,1013.28
2018-01-24T09:33:34.705Z,1013.21
2018-01-24T09:34:44.164Z,1013.21
2018-01-24T09:35:54.130Z,1013.14
2018-01-24T09:37:04.104Z,1013.19
2018-01-24T09:38:13.816Z,1013.15
2018-01-24T09:39:23.793Z,1013.15
2018-01-24T09:40:33.779Z,1013.2
2018-01-24T09:41:43.750Z,1013.16
2018-01-24T09:42:53.737Z,1013.26
2018-01-24T09:44:03.706Z,1013.16
2018-01-24T09:45:13.672Z,1013.13
2018-01-24T09:46:23.448Z,1013.18
2018-01-24T09:47:33.149Z,1013.19
2018-01-24T09:48:43.090Z,1013.22
2018-01-24T09:49:53.050Z,1013.21
2018-01-24T09:51:03.010Z,1013.22
2018-01-24T09:52:12.723Z,1013.21
2018-01-24T09:53:22.448Z,1013.19
2018-01-24T09:54:32.166Z,1013.21
2018-01-24T09:55:42.131Z,1013.25
2018-01-24T09:56:52.088Z,1013.27
2018-01-24T09:58:01.794Z,1013.27
2018-01-24T09:59:11.510Z,1013.18
2018-01-24T10:00:21.470Z,1013.17
2018-01-24T10:01:31.429Z,1013.23
2018-01-24T10:02:41.410Z,1013.2
2018-01-24T10:03:51.372Z,1013.3
2018-01-24T10:05:01.362Z,1013.24
2018-01-24T10:06:10.806Z,1013.17
2018-01-24T10:07:20.512Z,1013.16
2018-01-24T10:08:30.221Z,1013.21
2018-01-24T10:09:40.223Z,1013.17
2018-01-24T10:10:49.670Z,1013.15
2018-01-24T10:11:59.145Z,1013.23
2018-01-24T10:13:09.123Z,1013.14
2018-01-24T10:14:19.116Z,1013.07
2018-01-24T10:15:28.855Z,1013.06
2018-01-24T10:16:38.585Z,1013.03
2018-01-24T10:17:48.554Z,1013.07
2018-01-24T10:18:58.520Z,1013.13
2018-01-24T10:20:08.228Z,1013.05
2018-01-24T10:21:18.188Z,1013.07
2018-01-24T10:22:27.898Z,1013.02
2018-01-24T10:23:37.863Z,1013.06
2018-01-24T10:24:47.812Z,1013.08
2018-01-24T10:25:57.768Z,1013.1
2018-01-24T10:27:07.469Z,1013.12
2018-01-24T10:28:17.428Z,1013.05
2018-01-24T10:29:27.387Z,1013.07
2018-01-24T10:30:37.405Z,1012.97
2018-01-24T10:31:47.109Z,1012.96
2018-01-24T10:32:56.807Z,1012.93
2018-01-24T10:34:06.532Z,1013
2018-01-24T10:35:16.498Z,1012.86
2018-01-24T10:36:26.463Z,1012.85
2018-01-24T10:37:36.502Z,1012.82
2018-01-24T10:38:45.944Z,1012.82
2018-01-24T10:39:55.656Z,1012.83
2018-01-24T10:41:05.368Z,1012.82
2018-01-24T10:42:15.389Z,1012.86
2018-01-24T10:43:25.368Z,1012.91
2018-01-24T10:44:35.085Z,1012.86
2018-01-24T10:45:45.055Z,1012.95
2018-01-24T10:46:54.486Z,1012.92
2018-01-24T10:48:04.443Z,1012.99
2018-01-24T10:49:14.419Z,1012.87
2018-01-24T10:50:24.382Z,1012.94
2018-01-24T10:51:34.378Z,1012.86
2018-01-24T10:52:44.085Z,1012.9
2018-01-24T10:53:54.048Z,1012.89
2018-01-24T10:55:04.027Z,1012.91
2018-01-24T10:56:14.007Z,1012.86
2018-01-24T10:57:23.962Z,1012.88
2018-01-24T10:58:33.941Z,1012.88
2018-01-24T10:59:43.903Z,1012.86
2018-01-24T11:00:53.640Z,1012.83
2018-01-24T11:02:03.610Z,1012.95
2018-01-24T11:03:13.580Z,1012.78
2018-01-24T11:04:23.554Z,1012.86
2018-01-24T11:05:33.274Z,1012.85
2018-01-24T11:06:43.294Z,1012.87
2018-01-24T11:07:52.746Z,1012.81
2018-01-24T11:09:02.206Z,1012.78
2018-01-24T11:10:11.928Z,1012.75
2018-01-24T11:11:21.645Z,1012.73
2018-01-24T11:12:31.371Z,1012.7
2018-01-24T11:13:41.339Z,1012.61
2018-01-24T11:14:51.318Z,1012.84
2018-01-24T11:16:01.020Z,1012.66
2018-01-24T11:17:10.974Z,1012.65
2018-01-24T11:18:20.977Z,1012.68
2018-01-24T11:19:30.968Z,1012.63
2018-01-24T11:20:40.666Z,1012.62
2018-01-24T11:21:50.370Z,1012.68
2018-01-24T11:23:00.342Z,1012.74
2018-01-24T11:24:10.051Z,1012.72
2018-01-24T11:25:19.773Z,1012.65
2018-01-24T11:26:29.737Z,1012.73
2018-01-24T11:27:39.702Z,1012.65
2018-01-24T11:28:49.663Z,1012.7
2018-01-24T11:29:59.376Z,1012.57
2018-01-24T11:31:09.338Z,1012.72
2018-01-24T11:32:19.040Z,1012.9
2018-01-24T11:33:28.745Z,1012.67
2018-01-24T11:34:38.717Z,1012.69
2018-01-24T11:35:48.167Z,1012.69
2018-01-24T11:36:58.122Z,1012.64
2018-01-24T11:38:08.094Z,1012.64
2018-01-24T11:39:18.075Z,1012.7
2018-01-24T11:40:27.792Z,1012.61
2018-01-24T11:41:37.498Z,1012.57
2018-01-24T11:42:47.446Z,1012.59
2018-01-24T11:43:56.898Z,1012.61
2018-01-24T11:45:06.879Z,1012.59
2018-01-24T11:46:16.895Z,1012.63
2018-01-24T11:47:26.697Z,1012.54
2018-01-24T11:48:36.424Z,1012.56
2018-01-24T11:49:46.139Z,1012.49
2018-01-24T11:50:56.099Z,1012.53
2018-01-24T11:52:05.799Z,1012.46
2018-01-24T11:53:15.812Z,1012.5
2018-01-24T11:54:25.535Z,1012.5
2018-01-24T11:55:35.497Z,1012.35
2018-01-24T11:56:45.197Z,1012.49
2018-01-24T11:57:55.186Z,1012.44
2018-01-24T11:59:04.926Z,1012.38
2018-01-24T12:00:14.903Z,1012.32
2018-01-24T12:01:24.611Z,1012.48
2018-01-24T12:02:34.052Z,1012.39
2018-01-24T12:03:44.012Z,1012.4
2018-01-24T12:04:53.701Z,1012.32
2018-01-24T12:06:03.390Z,1012.33
2018-01-24T12:07:13.395Z,1012.29
2018-01-24T12:08:23.377Z,1012.31
2018-01-24T12:09:33.072Z,1012.22
2018-01-24T12:10:43.034Z,1012.21
2018-01-24T12:11:52.485Z,1012.25
2018-01-24T12:13:02.463Z,1012.19
2018-01-24T12:14:12.443Z,1012.19
2018-01-24T12:15:22.161Z,1012.17
2018-01-24T12:16:31.875Z,1012.17
2018-01-24T12:17:41.885Z,1012.15
2018-01-24T12:18:51.586Z,1012.1
2018-01-24T12:20:01.569Z,1012.1
2018-01-24T12:21:11.510Z,1012.16
2018-01-24T12:22:21.486Z,1012.02
2018-01-24T12:23:31.193Z,1012.04
2018-01-24T12:24:41.166Z,1011.96
2018-01-24T12:25:51.144Z,1011.93
2018-01-24T12:27:01.163Z,1011.94
2018-01-24T12:28:10.598Z,1011.91
2018-01-24T12:29:20.301Z,1011.9
2018-01-24T12:30:30.273Z,1011.89
2018-01-24T12:31:40.247Z,1011.79
2018-01-24T12:32:50.202Z,1011.85
2018-01-24T12:33:59.909Z,1011.86
2018-01-24T12:35:09.861Z,1011.88
2018-01-24T12:36:19.806Z,1011.8
2018-01-24T12:37:29.502Z,1011.74
2018-01-24T12:38:39.465Z,1011.68
2018-01-24T12:39:49.430Z,1011.82
2018-01-24T12:40:59.390Z,1011.77
2018-01-24T12:42:09.170Z,1011.74
2018-01-24T12:43:19.167Z,1011.78
2018-01-24T12:44:28.903Z,1011.68
2018-01-24T12:45:38.900Z,1011.71
2018-01-24T12:46:48.601Z,1011.74
2018-01-24T12:47:58.553Z,1011.66
2018-01-24T12:49:08.517Z,1011.74
2018-01-24T12:50:18.496Z,1011.7
2018-01-24T12:51:28.195Z,1011.61
2018-01-24T12:52:37.889Z,1011.59
2018-01-24T12:53:47.851Z,1011.48
2018-01-24T12:54:57.571Z,1011.6
2018-01-24T12:56:07.541Z,1011.6
2018-01-24T12:57:17.256Z,1011.48
2018-01-24T12:58:26.686Z,1011.55
2018-01-24T12:59:36.626Z,1011.5
2018-01-24T13:00:46.587Z,1011.51
2018-01-24T13:01:56.559Z,1011.46
2018-01-24T13:03:06.564Z,1011.52
2018-01-24T13:04:16.519Z,1011.41
2018-01-24T13:05:26.469Z,1011.33
2018-01-24T13:06:36.425Z,1011.43
2018-01-24T13:07:46.390Z,1011.54
2018-01-24T13:08:56.363Z,1011.42
2018-01-24T13:10:06.312Z,1011.39
2018-01-24T13:11:16.406Z,1011.38
2018-01-24T13:12:26.361Z,1011.44
2018-01-24T13:13:36.318Z,1011.41
2018-01-24T13:14:46.104Z,1011.29
2018-01-24T13:15:56.171Z,1011.35
2018-01-24T13:17:06.146Z,1011.34
2018-01-24T13:18:16.103Z,1011.32
2018-01-24T13:19:26.089Z,1011.29
2018-01-24T13:20:36.069Z,1011.29
2018-01-24T13:21:45.539Z,1011.31
2018-01-24T13:22:55.264Z,1011.27
2018-01-24T13:24:05.243Z,1011.13
2018-01-24T13:25:14.960Z,1011.27
2018-01-24T13:26:24.677Z,1011.21
2018-01-24T13:27:34.386Z,1011.18
2018-01-24T13:28:44.383Z,1011.22
2018-01-24T13:29:54.089Z,1011.15
2018-01-24T13:31:04.041Z,1011.16
2018-01-24T13:32:14.002Z,1011.2
2018-01-24T13:33:23.709Z,1011.18
2018-01-24T13:34:33.684Z,1011.2
2018-01-24T13:35:43.628Z,1011.11
2018-01-24T13:36:53.327Z,1011.15
2018-01-24T13:38:03.351Z,1011.21
2018-01-24T13:39:13.161Z,1011.09
2018-01-24T13:40:23.046Z,1011.09
2018-01-24T13:41:33.005Z,1011.17
2018-01-24T13:42:42.986Z,1011.09
2018-01-24T13:43:52.946Z,1011.14
2018-01-24T13:45:02.990Z,1011.09
2018-01-24T13:46:13.149Z,1011.11
2018-01-24T13:47:23.119Z,1011.09
2018-01-24T13:48:32.816Z,1011.07
2018-01-24T13:49:42.536Z,1011.08
2018-01-24T13:50:52.276Z,1011.05
2018-01-24T13:52:02.304Z,1010.96
2018-01-24T13:53:12.279Z,1010.95
2018-01-24T13:54:22.266Z,1011
2018-01-24T13:55:32.403Z,1010.94
2018-01-24T13:56:42.399Z,1010.97
2018-01-24T13:57:52.081Z,1011
2018-01-24T13:59:02.053Z,1011.01
2018-01-24T14:00:12.029Z,1010.96
2018-01-24T14:01:21.989Z,1010.96
2018-01-24T14:02:31.950Z,1010.95
2018-01-24T14:03:41.915Z,1010.99
2018-01-24T14:04:51.884Z,1011
2018-01-24T14:06:01.333Z,1011.02
2018-01-24T14:07:11.039Z,1010.94
2018-01-24T14:08:20.747Z,1010.88
2018-01-24T14:09:30.727Z,1010.85